< < Back
Terminal Aerodrome Forecast


Current Version              Previous Versions:   1  2  3  4  5  6  7  8  9  

Terminal Aerodrome Forecast

787
FTUS42 KFFC 030804 AAA
TAFATL
TAF AMD
KATL 030804Z 0308/0412 09005KT P6SM FEW090
     FM031300 34004KT P6SM SCT080
     FM031700 31006KT P6SM SCT050
     FM040300 35004KT P6SM FEW080=



Latest METAR

088
SAUS70 KWBC 031000 RRA
MTRATL
METAR KATL 030952Z 06006KT 10SM FEW200 24/19 A2990 RMK AO2 SLP111
T02390194


USA.gov is the U.S. government's official web portal to all federal, state and local government web resources and services.